METAR AND TAF INFORMATION
METAR FOR ORBI
ADDS - METARS form results

(1854 UTC 23 April 2018)
Data provider http://aviationweather.gov/adds/metars/
 
METAR text: ORBI 231830Z 34006KT CAVOK 20/11 Q1014
Conditions at: ORBI (BAGHDAD INTL , IQ) observed 1830 UTC 23 April 2018
Temperature: 20.0°C (68°F)
Dewpoint: 11.0°C (52°F) [RH = 56%]
Pressure (altimeter): 29.94 inches Hg (1014.0 mb)
Winds: from the NNW (340 degrees) at 7 MPH (6 knots; 3.1 m/s)
Visibility: 6 or more miles (10+ km)
Ceiling: ceiling and visibility are OK
Clouds: unknown
Weather: no significant weather observed at this time

METAR text: ORBI 231800Z 32006KT CAVOK 20/10 Q1013 NOSIG
Conditions at: ORBI (BAGHDAD INTL , IQ) observed 1800 UTC 23 April 2018
Temperature: 20.0°C (68°F)
Dewpoint: 10.0°C (50°F) [RH = 53%]
Pressure (altimeter): 29.91 inches Hg (1013.0 mb)
Winds: from the NW (320 degrees) at 7 MPH (6 knots; 3.1 m/s)
Visibility: 6 or more miles (10+ km)
Ceiling: ceiling and visibility are OK
Clouds: unknown
Weather: no significant weather observed at this time

Forecast for: ORBI (BAGHDAD INTL , IQ)
Text: TAF ORBI 231600Z 2318/2418 30008KT CAVOK
Forecast period: 1800 to 2000 UTC 23 April 2018
Forecast type: FROM: standard forecast or significant change
Winds: from the WNW (300 degrees) at 9 MPH (8 knots; 4.2 m/s)
Visibility: 6 or more miles (10+ km)
Clouds: not forecast
Weather: NSW  (no significant weather)
Forecast for: ORBI (BAGHDAD INTL , IQ)
Text: TAF ORBI 231600Z 2318/2418 30008KT CAVOK
Forecast period: 1800 to 2000 UTC 23 April 2018
Forecast type: FROM: standard forecast or significant change
Winds: from the WNW (300 degrees) at 9 MPH (8 knots; 4.2 m/s)
Visibility: 6 or more miles (10+ km)
Clouds: not forecast
Weather: NSW  (no significant weather)
Forecast for: ORBI (BAGHDAD INTL , IQ)
Text: TAF ORBI 231600Z 2318/2418 30008KT CAVOK
Forecast period: 2000 UTC 23 April 2018 to 0600 UTC 24 April 2018
Forecast type: BECOMING: Conditions expected to become as follows by 2200 UTC 23 April 2018
Winds: from the SE (130 degrees) at 7 MPH (6 knots; 3.1 m/s)
Visibility: 6 or more miles (10+ km)
Weather: NSW  (no significant weather)
Forecast for: ORBI (BAGHDAD INTL , IQ)
Text: TAF ORBI 231600Z 2318/2418 30008KT CAVOK
Forecast period: 2000 UTC 23 April 2018 to 0600 UTC 24 April 2018
Forecast type: BECOMING: Conditions expected to become as follows by 2200 UTC 23 April 2018
Winds: from the SE (130 degrees) at 7 MPH (6 knots; 3.1 m/s)
Visibility: 6 or more miles (10+ km)
Weather: NSW  (no significant weather)
Forecast for: ORBI (BAGHDAD INTL , IQ)
Text: TAF ORBI 231600Z 2318/2418 30008KT CAVOK
Forecast period: 0600 to 1800 UTC 24 April 2018
Forecast type: BECOMING: Conditions expected to become as follows by 0800 UTC 24 April 2018
Winds: from the NW (320 degrees) at 6 MPH (5 knots; 2.6 m/s)
Visibility: 6 or more miles (10+ km)
Weather: NSW  (no significant weather)
Forecast for: ORBI (BAGHDAD INTL , IQ)
Text: TAF ORBI 231600Z 2318/2418 30008KT CAVOK
Forecast period: 0600 to 1800 UTC 24 April 2018
Forecast type: BECOMING: Conditions expected to become as follows by 0800 UTC 24 April 2018
Winds: from the NW (320 degrees) at 6 MPH (5 knots; 2.6 m/s)
Visibility: 6 or more miles (10+ km)
Weather: NSW  (no significant weather)

 AIRPORT MAP

 RUNWAY INFORMATION
Runway 15L Runway length 13124 ft Runway width 197 ft
Runway elevation 113 ft Runway displaced threshold 0 ft Runway heading 150
Runway 33R Runway length 13124 ft Runway width 197 ft
Runway elevation 110 ft Runway displaced threshold 0 ft Runway heading 330
Runway 15R Runway length 10830 ft Runway width 148 ft
Runway elevation 114 ft Runway displaced threshold 0 ft Runway heading 150
Runway 33L Runway length 10830 ft Runway width 148 ft
Runway elevation 113 ft Runway displaced threshold 0 ft Runway heading 330

 AIRPORT FREQUENCIES
Type ACC Name BALAD ACC Frequency 123.52 MHZ
Type APP Name APP Frequency 128.2 MHZ
Type ATIS Name INFO Frequency 127.25 MHZ
Type DEP Name DEP Frequency 131.9 MHZ
Type GND Name GND Frequency 121.7 MHZ
Type HEL Name HELO Frequency 131.7 MHZ
Type PMSV Name METRO Frequency 116.15 MHZ
Type POST Name COMD POST Frequency 133.5 MHZ
Type RDO Name RDO Frequency 127.35 MHZ
Type TWR Name TWR Frequency 118.7 MHZ

 AIRPORT NEAR NAVIGATION AIDS
Type TACAN Name Baghdad Frequency 133700 KHZ



Created by Rayan Sharara,

Powered by Virtual Airlines Manager [v2.6.2]